Time;durP1;ratioP1;P1;durP2;ratioP2;P2;SDS_P1;SDS_P2;PMS_P1;PMS_P2;Temp;Humidity;BMP_temperature;BMP_pressure;BME280_temperature;BME280_humidity;BME280_pressure;Samples;Min_cycle;Max_cycle;Signal;HPM_P1;HPM_P2
2022/12/18 00:01:46;;;;;;;24.90;14.40;;;;;;;-1.14;98.99;99715.00;102225;1307;22492;-60
2022/12/18 00:04:18;;;;;;;;;;;;;;;-1.15;98.50;99716.23;102264;1294;22453;-60
2022/12/18 00:06:45;;;;;;;17.60;11.40;;;;;;;-1.18;98.45;99721.88;106313;1310;124304;-60
2022/12/18 00:09:13;;;;;;;21.20;11.80;;;;;;;-1.19;98.23;99720.94;106716;1304;23009;-61
2022/12/18 00:11:40;;;;;;;21.20;12.10;;;;;;;-1.20;98.28;99723.17;106593;1306;138453;-61
2022/12/18 00:14:08;;;;;;;18.10;12.80;;;;;;;-1.20;98.44;99722.71;106725;1306;22998;-60
2022/12/18 00:16:36;;;;;;;18.90;12.30;;;;;;;-1.19;98.25;99724.91;106558;1299;22212;-60
2022/12/18 00:19:03;;;;;;;20.90;12.00;;;;;;;-1.20;98.23;99723.41;106595;1303;137900;-60
2022/12/18 00:21:31;;;;;;;24.00;13.10;;;;;;;-1.20;98.17;99729.92;106694;1295;22401;-61
2022/12/18 00:23:58;;;;;;;19.50;11.60;;;;;;;-1.21;97.73;99731.88;106640;1293;138717;-61
2022/12/18 00:26:30;;;;;;;20.00;12.30;;;;;;;-1.21;97.70;99734.02;106770;1303;22984;-61
2022/12/18 00:29:01;;;;;;;19.40;12.30;;;;;;;-1.21;98.02;99741.86;106634;1302;138474;-61
2022/12/18 00:31:29;;;;;;;22.00;12.80;;;;;;;-1.22;97.47;99745.54;106712;1303;22118;-60
2022/12/18 00:33:56;;;;;;;20.50;13.00;;;;;;;-1.24;97.58;99748.42;106695;1302;22358;-59
2022/12/18 00:36:27;;;;;;;19.90;13.00;;;;;;;-1.27;97.66;99743.92;106433;1303;142234;-60
2022/12/18 00:40:12;;;;;;;20.60;12.90;;;;;;;-1.26;97.25;99748.16;99708;1334;545040;-59
2022/12/18 00:42:57;;;;;;;21.90;13.80;;;;;;;-1.34;96.87;99751.77;101156;1318;137064;-60
2022/12/18 00:45:29;;;;;;;22.50;13.70;;;;;;;-1.36;97.04;99759.86;101198;1316;24265;-59
2022/12/18 00:47:56;;;;;;;22.20;13.70;;;;;;;-1.40;97.21;99754.90;105293;1323;139185;-61
2022/12/18 00:50:24;;;;;;;19.70;12.90;;;;;;;-1.42;96.89;99754.77;105789;1316;22545;-61
2022/12/18 00:52:50;;;;;;;20.60;12.00;;;;;;;-1.43;96.61;99759.23;105494;1313;146818;-61
2022/12/18 00:55:17;;;;;;;;;;;;;;;-1.49;96.43;99764.14;105874;1316;22405;-60
2022/12/18 00:57:46;;;;;;;20.70;12.40;;;;;;;-1.52;96.42;99768.75;105739;1318;23048;-60
2022/12/18 01:00:13;;;;;;;21.50;12.50;;;;;;;-1.53;96.65;99777.10;105750;1303;137761;-61
2022/12/18 01:02:40;;;;;;;22.20;12.10;;;;;;;-1.54;96.22;99777.55;105847;1313;22197;-61
2022/12/18 01:05:07;;;;;;;;;;;;;;;-1.57;96.27;99779.66;105730;1313;138246;-61
2022/12/18 01:07:34;;;;;;;20.50;11.80;;;;;;;-1.59;95.61;99780.68;105732;1313;22138;-61
2022/12/18 01:10:02;;;;;;;19.60;12.60;;;;;;;-1.66;95.49;99788.72;105733;1317;22129;-59
2022/12/18 01:12:28;;;;;;;20.00;12.10;;;;;;;-1.68;95.42;99787.73;105583;1314;137511;-60
2022/12/18 01:14:55;;;;;;;25.10;13.00;;;;;;;-1.71;95.19;99789.83;105869;1316;22213;-60
2022/12/18 01:17:22;;;;;;;20.90;12.80;;;;;;;-1.73;95.62;99788.65;105790;1313;137254;-61
2022/12/18 01:19:49;;;;;;;21.60;13.30;;;;;;;-1.77;95.46;99798.19;105855;1314;22133;-59
2022/12/18 01:22:15;;;;;;;20.50;11.70;;;;;;;-1.74;95.53;99802.73;105864;1312;22858;-59
2022/12/18 01:24:44;;;;;;;22.80;13.50;;;;;;;-1.76;95.31;99810.21;105708;1314;137903;-59
2022/12/18 01:27:10;;;;;;;24.40;13.20;;;;;;;-1.80;95.25;99812.38;105899;1312;23080;-59
2022/12/18 01:29:38;;;;;;;21.90;12.40;;;;;;;-1.81;95.40;99810.84;105832;1313;137785;-59
2022/12/18 01:32:05;;;;;;;21.80;12.70;;;;;;;-1.84;95.25;99808.39;106061;1308;23327;-59
2022/12/18 01:34:32;;;;;;;24.10;12.10;;;;;;;-1.84;95.26;99813.21;105951;1303;22213;-60
2022/12/18 01:36:58;;;;;;;22.10;12.50;;;;;;;-1.88;94.90;99819.35;105926;1313;138560;-60
2022/12/18 01:39:25;;;;;;;21.30;14.40;;;;;;;-1.90;94.92;99821.89;105383;1305;22524;-60
2022/12/18 01:42:01;;;;;;;24.10;12.50;;;;;;;-1.93;94.59;99828.30;101472;1304;137384;-59
2022/12/18 01:44:56;;;;;;;21.00;12.30;;;;;;;-2.01;94.77;99823.98;101550;1304;22481;-60
2022/12/18 01:47:37;;;;;;;23.10;14.00;;;;;;;-2.04;94.35;99823.15;105577;1320;138385;-60
2022/12/18 01:50:11;;;;;;;23.00;14.40;;;;;;;-2.13;94.17;99823.56;105907;1313;22429;-60
2022/12/18 01:52:38;;;;;;;21.50;12.00;;;;;;;-2.15;94.15;99835.48;106022;1313;22165;-60
2022/12/18 01:55:05;;;;;;;22.30;12.80;;;;;;;-2.17;94.15;99836.14;105660;1315;138169;-60
2022/12/18 01:57:32;;;;;;;25.10;13.20;;;;;;;-2.18;94.02;99839.09;106065;1312;22155;-60
2022/12/18 02:00:00;;;;;;;;;;;;;;;-2.20;94.09;99843.23;105663;1308;137900;-60
2022/12/18 02:02:39;;;;;;;20.60;12.10;;;;;;;-2.22;93.82;99845.16;105834;1314;22127;-60
2022/12/18 02:05:06;;;;;;;19.70;11.10;;;;;;;-2.27;93.99;99844.98;105589;1314;140467;-60
2022/12/18 02:07:39;;;;;;;21.40;13.90;;;;;;;-2.28;94.17;99850.48;105871;1313;22233;-60
2022/12/18 02:10:13;;;;;;;20.60;11.40;;;;;;;-2.28;93.87;99858.66;105559;1314;22128;-60
2022/12/18 02:13:06;;;;;;;22.80;12.80;;;;;;;-2.28;94.14;99860.49;105438;1316;138731;-61
2022/12/18 02:15:39;;;;;;;20.10;12.40;;;;;;;-2.29;93.84;99866.30;105858;1313;22329;-60
2022/12/18 02:18:28;;;;;;;23.00;13.20;;;;;;;-2.34;93.57;99863.64;105408;1314;137433;-61
2022/12/18 02:21:05;;;;;;;20.60;12.70;;;;;;;-2.37;93.49;99867.02;105780;1315;22188;-61
2022/12/18 02:23:53;;;;;;;21.80;12.60;;;;;;;-2.40;93.62;99867.67;105558;1298;138840;-60
2022/12/18 02:26:31;;;;;;;21.40;13.20;;;;;;;-2.44;93.31;99877.02;105831;1314;22120;-61
2022/12/18 02:29:04;;;;;;;21.50;12.30;;;;;;;-2.46;93.29;99876.65;105395;1317;138228;-60
2022/12/18 02:31:35;;;;;;;24.30;14.20;;;;;;;-2.46;93.24;99878.46;105685;1315;22159;-59
2022/12/18 02:34:03;;;;;;;25.90;13.10;;;;;;;-2.47;93.24;99874.35;105785;1314;22958;-60
2022/12/18 02:36:33;;;;;;;21.30;11.90;;;;;;;-2.49;92.92;99884.31;105447;1314;138176;-60
2022/12/18 02:39:00;;;;;;;19.90;11.70;;;;;;;-2.52;92.72;99889.89;105505;1315;22216;-60
2022/12/18 02:41:28;;;;;;;25.00;14.70;;;;;;;-2.54;92.51;99891.17;105445;1316;139842;-60
2022/12/18 02:43:57;;;;;;;18.90;11.40;;;;;;;-2.57;92.48;99900.16;105523;1309;22997;-60
2022/12/18 02:46:36;;;;;;;20.00;12.00;;;;;;;-2.58;92.12;99901.44;105745;1300;22230;-60
2022/12/18 02:49:31;;;;;;;22.70;13.70;;;;;;;-2.64;92.11;99900.80;105862;1313;22315;-60
2022/12/18 02:52:11;;;;;;;21.20;12.20;;;;;;;-2.60;92.25;99916.77;105582;1314;22172;-60
2022/12/18 02:55:03;;;;;;;20.60;12.50;;;;;;;-2.57;92.39;99921.94;105447;1309;137714;-60
2022/12/18 02:57:37;;;;;;;19.80;11.30;;;;;;;-2.56;92.61;99926.74;105562;1315;22513;-60
2022/12/18 03:00:10;;;;;;;20.50;11.10;;;;;;;-2.55;92.27;99934.65;105649;1315;138524;-60
2022/12/18 03:02:56;;;;;;;22.60;12.60;;;;;;;-2.56;92.12;99941.71;105512;1315;22173;-60
2022/12/18 03:05:48;;;;;;;20.90;11.20;;;;;;;-2.58;91.64;99944.81;105311;1310;138523;-60
2022/12/18 03:08:18;;;;;;;20.60;11.10;;;;;;;-2.61;91.77;99952.27;105562;1314;22884;-60
2022/12/18 03:10:51;;;;;;;18.70;11.10;;;;;;;-2.62;91.63;99959.82;105243;1314;139105;-58
2022/12/18 03:13:25;;;;;;;18.10;10.90;;;;;;;-2.65;91.62;99961.38;105548;1315;22255;-59
2022/12/18 03:15:53;;;;;;;20.60;11.00;;;;;;;-2.68;91.40;99969.73;105396;1314;22096;-59
2022/12/18 03:18:25;;;;;;;23.40;11.80;;;;;;;-2.71;91.40;99966.88;105640;1315;138319;-60
2022/12/18 03:20:52;;;;;;;22.70;12.80;;;;;;;-2.71;91.37;99973.98;105811;1312;22079;-59
2022/12/18 03:23:24;;;;;;;24.00;12.00;;;;;;;-2.74;91.14;99976.77;105445;1304;137329;-59
2022/12/18 03:26:07;;;;;;;20.30;11.70;;;;;;;-2.78;91.21;99980.70;105402;1315;22257;-59
2022/12/18 03:28:38;;;;;;;20.20;11.60;;;;;;;-2.79;91.26;99982.26;105766;1299;22155;-60
2022/12/18 03:31:07;;;;;;;20.00;11.40;;;;;;;-2.78;91.28;99982.16;105398;1314;137567;-59
2022/12/18 03:33:38;;;;;;;20.90;11.00;;;;;;;-2.78;91.23;99980.07;105511;1314;22146;-59
2022/12/18 03:36:06;;;;;;;16.80;10.00;;;;;;;-2.81;91.18;99980.19;105679;1314;139287;-59
2022/12/18 03:38:33;;;;;;;18.10;9.70;;;;;;;-2.79;91.02;99992.06;105721;1315;23246;-60
2022/12/18 03:41:05;;;;;;;19.80;11.20;;;;;;;-2.80;91.06;99994.83;105572;1314;139078;-60
2022/12/18 03:44:07;;;;;;;16.90;9.50;;;;;;;-2.80;90.63;99998.61;105744;1314;23318;-59
2022/12/18 03:47:02;;;;;;;20.10;10.70;;;;;;;-2.84;90.23;100000.56;105568;1314;22081;-60
2022/12/18 03:49:34;;;;;;;15.10;9.70;;;;;;;-2.90;89.90;100000.80;105684;1312;22319;-60
2022/12/18 03:52:20;;;;;;;19.50;11.70;;;;;;;-2.94;89.66;100007.30;105581;1316;22174;-59
2022/12/18 03:54:48;;;;;;;20.40;11.60;;;;;;;-2.96;89.43;100011.41;105425;1314;137358;-60
2022/12/18 03:57:20;;;;;;;17.50;10.40;;;;;;;-2.99;89.46;100018.45;105505;1314;22179;-59
2022/12/18 03:59:56;;;;;;;20.30;11.60;;;;;;;-3.01;89.50;100021.56;105655;1314;138240;-60
2022/12/18 04:02:25;;;;;;;18.50;10.70;;;;;;;-3.03;88.89;100033.66;105448;1316;22230;-60
2022/12/18 04:04:53;;;;;;;18.60;10.50;;;;;;;-3.07;88.95;100034.39;105464;1309;138587;-60
2022/12/18 04:07:20;;;;;;;17.20;9.80;;;;;;;-3.06;89.13;100039.29;105588;1316;23146;-60
2022/12/18 04:09:48;;;;;;;18.80;9.90;;;;;;;-3.06;89.07;100037.38;105686;1309;22288;-60
2022/12/18 04:12:16;;;;;;;17.20;9.70;;;;;;;-3.07;89.19;100040.28;105581;1315;138099;-60
2022/12/18 04:14:43;;;;;;;19.40;10.70;;;;;;;-3.07;88.91;100044.52;105588;1307;22324;-60
2022/12/18 04:17:12;;;;;;;16.80;10.90;;;;;;;-3.08;88.95;100049.48;105470;1303;138054;-59
2022/12/18 04:19:39;;;;;;;16.00;10.00;;;;;;;-3.10;89.15;100047.91;105568;1315;23128;-59
2022/12/18 04:22:09;;;;;;;16.40;9.80;;;;;;;-3.08;88.87;100059.80;105839;1298;22327;-59
2022/12/18 04:24:38;;;;;;;18.50;11.00;;;;;;;-3.08;88.85;100069.22;105433;1306;137777;-59
2022/12/18 04:27:13;;;;;;;18.70;11.30;;;;;;;-3.08;89.16;100069.55;105644;1315;22298;-59
2022/12/18 04:29:45;;;;;;;20.70;10.80;;;;;;;-3.07;89.21;100074.27;105517;1309;137874;-59
2022/12/18 04:32:11;;;;;;;17.20;10.10;;;;;;;-3.06;89.26;100075.94;105600;1314;22130;-59
2022/12/18 04:34:38;;;;;;;18.50;10.50;;;;;;;-3.07;88.88;100081.89;105691;1315;23214;-59
2022/12/18 04:37:05;;;;;;;16.70;11.10;;;;;;;-3.08;88.86;100079.18;105801;1315;138197;-59
2022/12/18 04:39:32;;;;;;;16.40;10.00;;;;;;;-3.07;88.93;100090.91;105599;1315;22398;-59
2022/12/18 04:42:03;;;;;;;17.40;10.70;;;;;;;-3.05;88.79;100090.60;105457;1314;138045;-59
2022/12/18 04:44:29;;;;;;;15.90;9.70;;;;;;;-3.03;89.00;100097.67;105833;1299;22542;-59
2022/12/18 04:46:56;;;;;;;16.90;10.60;;;;;;;-3.02;88.60;100101.92;105876;1306;138036;-59
2022/12/18 04:49:23;;;;;;;16.60;10.70;;;;;;;-3.03;88.21;100103.46;106407;1308;24044;-59
2022/12/18 04:51:49;;;;;;;19.30;11.80;;;;;;;-3.05;87.85;100107.46;106405;1306;22151;-59
2022/12/18 04:54:19;;;;;;;16.60;10.00;;;;;;;-3.07;87.74;100113.14;106279;1307;138262;-60
2022/12/18 04:56:46;;;;;;;19.00;10.60;;;;;;;-3.11;87.04;100118.87;106394;1308;23077;-59
2022/12/18 04:59:13;;;;;;;15.90;10.00;;;;;;;-3.17;86.55;100124.45;106335;1301;137786;-59
2022/12/18 05:01:39;;;;;;;17.90;9.50;;;;;;;-3.22;86.73;100129.92;106428;1300;22127;-59
2022/12/18 05:04:06;;;;;;;20.50;10.50;;;;;;;-3.25;86.60;100134.81;106496;1298;22146;-59
2022/12/18 05:06:33;;;;;;;17.90;10.50;;;;;;;-3.31;85.58;100134.46;106302;1308;138552;-59
2022/12/18 05:09:00;;;;;;;18.20;10.30;;;;;;;-3.36;86.17;100133.80;106484;1306;22120;-59
2022/12/18 05:11:27;;;;;;;19.10;10.00;;;;;;;-3.34;86.43;100130.12;106551;1303;138699;-59
2022/12/18 05:13:56;;;;;;;18.10;10.70;;;;;;;-3.33;86.55;100141.31;106727;1297;22181;-59
2022/12/18 05:16:23;;;;;;;16.90;10.20;;;;;;;-3.36;86.53;100143.30;106657;1303;22463;-59
2022/12/18 05:18:50;;;;;;;;;;;;;;;-3.34;86.13;100156.57;106517;1297;138272;-59
2022/12/18 05:21:16;;;;;;;18.00;9.30;;;;;;;-3.39;86.05;100152.45;106621;1303;23087;-59
2022/12/18 05:23:43;;;;;;;18.60;9.50;;;;;;;-3.40;85.34;100166.20;106538;1295;139670;-59
2022/12/18 05:26:10;;;;;;;;;;;;;;;-3.44;85.72;100169.95;106648;1295;24642;-59
2022/12/18 05:28:36;;;;;;;15.40;9.10;;;;;;;-3.44;85.99;100176.70;106669;1289;22183;-59
2022/12/18 05:31:04;;;;;;;17.10;8.70;;;;;;;-3.45;85.90;100174.66;106748;1294;137872;-59
2022/12/18 05:33:32;;;;;;;18.80;9.80;;;;;;;-3.46;85.82;100182.99;106802;1288;22108;-59
2022/12/18 05:36:00;;;;;;;18.40;10.20;;;;;;;-3.48;85.60;100186.46;106709;1292;138124;-59
2022/12/18 05:38:27;;;;;;;19.60;10.50;;;;;;;-3.51;85.26;100194.36;106779;1294;22224;-60
2022/12/18 05:40:54;;;;;;;17.50;10.20;;;;;;;-3.59;84.59;100192.94;103452;1288;138811;-59
2022/12/18 05:43:24;;;;;;;;;;;;;;;-3.65;84.78;100202.05;102512;1303;24328;-58
2022/12/18 05:45:51;;;;;;;16.00;9.30;;;;;;;-3.70;84.64;100203.25;102342;1304;24761;-59
2022/12/18 05:48:17;;;;;;;17.40;9.00;;;;;;;-3.70;85.07;100213.61;102227;1297;139143;-59
2022/12/18 05:50:45;;;;;;;16.70;9.10;;;;;;;-3.71;85.09;100215.95;102304;1288;24547;-59
2022/12/18 05:53:13;;;;;;;16.30;9.30;;;;;;;-3.71;85.47;100216.54;102218;1286;138685;-59
2022/12/18 05:55:40;;;;;;;18.30;10.10;;;;;;;-3.69;85.61;100220.95;102385;1296;22516;-59
2022/12/18 05:58:07;;;;;;;16.60;9.70;;;;;;;-3.67;85.72;100223.61;102295;1293;25391;-59
2022/12/18 06:00:35;;;;;;;18.90;10.10;;;;;;;-3.69;85.17;100229.98;106254;1310;138045;-59
2022/12/18 06:03:02;;;;;;;19.90;11.60;;;;;;;-3.72;85.39;100239.66;106713;1305;22280;-59
2022/12/18 06:05:29;;;;;;;18.10;10.00;;;;;;;-3.72;85.62;100246.62;106557;1299;138491;-59
2022/12/18 06:07:55;;;;;;;15.20;9.60;;;;;;;-3.75;85.73;100243.21;106585;1297;22915;-60
2022/12/18 06:10:22;;;;;;;;;;;;;;;-3.70;85.63;100248.06;106733;1303;22425;-60
2022/12/18 06:12:49;;;;;;;17.70;9.70;;;;;;;-3.70;85.53;100253.16;106568;1302;127134;-60
2022/12/18 06:15:16;;;;;;;16.70;10.00;;;;;;;-3.70;85.38;100262.58;106753;1304;22246;-59
2022/12/18 06:17:42;;;;;;;;;;;;;;;-3.71;85.20;100265.16;106684;1302;138813;-60
2022/12/18 06:20:10;;;;;;;12.70;7.60;;;;;;;-3.71;85.39;100271.41;106602;1289;22270;-60
2022/12/18 06:22:36;;;;;;;23.10;9.50;;;;;;;-3.70;85.24;100277.27;106638;1303;23597;-59
2022/12/18 06:25:04;;;;;;;18.20;9.90;;;;;;;-3.70;85.06;100277.34;106637;1302;138998;-60
2022/12/18 06:27:30;;;;;;;16.20;8.80;;;;;;;-3.76;84.73;100277.36;106637;1303;23468;-59
2022/12/18 06:29:57;;;;;;;16.70;9.40;;;;;;;-3.76;84.38;100286.65;106632;1303;137497;-60
2022/12/18 06:32:24;;;;;;;;;;;;;;;-3.82;84.21;100289.33;106661;1303;23212;-60
2022/12/18 06:34:50;;;;;;;13.30;7.70;;;;;;;-3.85;84.28;100290.85;106558;1296;124819;-59
2022/12/18 06:37:17;;;;;;;16.70;9.60;;;;;;;-3.87;84.36;100293.33;106645;1289;23645;-60
2022/12/18 06:39:44;;;;;;;17.30;8.90;;;;;;;-3.92;84.25;100290.63;106749;1303;22145;-60
2022/12/18 06:42:11;;;;;;;19.90;11.20;;;;;;;-3.88;84.39;100305.29;106578;1303;139229;-60
2022/12/18 06:44:37;;;;;;;;;;;;;;;-3.86;83.99;100310.13;106665;1293;22426;-60
2022/12/18 06:47:04;;;;;;;14.80;8.20;;;;;;;-3.87;83.91;100317.51;106647;1280;124593;-60
2022/12/18 06:49:31;;;;;;;17.30;9.60;;;;;;;-3.90;83.89;100316.70;106795;1302;23171;-61
2022/12/18 06:51:57;;;;;;;13.60;7.80;;;;;;;-3.88;83.85;100329.97;106908;1302;22151;-59
2022/12/18 06:54:24;;;;;;;;;;;;;;;-3.88;83.72;100325.38;106796;1303;139315;-59
2022/12/18 06:56:51;;;;;;;18.20;9.80;;;;;;;-3.91;83.60;100324.44;106856;1302;22132;-59
2022/12/18 06:59:17;;;;;;;17.70;10.30;;;;;;;-3.87;83.81;100333.08;106658;1302;138030;-59
2022/12/18 07:01:44;;;;;;;19.90;10.50;;;;;;;-3.87;83.80;100332.19;106833;1302;22297;-59
2022/12/18 07:04:11;;;;;;;16.00;9.80;;;;;;;-3.86;83.93;100337.25;106790;1302;22116;-59
2022/12/18 07:06:38;;;;;;;18.90;10.80;;;;;;;-3.85;84.10;100344.31;106572;1303;138291;-59
2022/12/18 07:09:04;;;;;;;42.90;21.40;;;;;;;-3.89;84.03;100340.18;106658;1303;22365;-63
2022/12/18 07:11:34;;;;;;;31.20;16.40;;;;;;;-3.86;83.89;100345.41;106593;1303;138207;-59
2022/12/18 07:14:01;;;;;;;23.90;13.00;;;;;;;-3.88;84.11;100351.65;106654;1303;22372;-59
2022/12/18 07:16:28;;;;;;;;;;;;;;;-3.89;84.09;100351.42;106731;1304;22425;-58
2022/12/18 07:18:55;;;;;;;16.00;9.00;;;;;;;-3.91;84.11;100349.29;106527;1303;124756;-59
2022/12/18 07:21:22;;;;;;;;;;;;;;;-3.91;84.02;100354.63;106656;1302;23635;-59
2022/12/18 07:23:48;;;;;;;19.60;9.10;;;;;;;-3.93;84.08;100354.05;106531;1288;124865;-59
2022/12/18 07:26:17;;;;;;;14.20;8.50;;;;;;;-3.93;84.27;100357.41;106617;1297;22183;-59
2022/12/18 07:28:43;;;;;;;16.00;7.90;;;;;;;-3.92;84.54;100362.09;106638;1303;23342;-60
2022/12/18 07:31:18;;;;;;;17.50;9.90;;;;;;;-3.89;84.54;100368.60;106478;1291;137727;-60
2022/12/18 07:33:47;;;;;;;12.60;7.40;;;;;;;-3.86;84.81;100373.28;106659;1295;23229;-60
2022/12/18 07:36:14;;;;;;;;;;;;;;;-3.84;84.63;100383.80;106599;1295;137334;-60
2022/12/18 07:38:41;;;;;;;16.70;8.30;;;;;;;-3.86;84.85;100385.89;106604;1303;23319;-60
2022/12/18 07:41:11;;;;;;;;;;;;;;;-3.85;85.01;100392.88;106657;1288;138648;-61
2022/12/18 07:43:38;;;;;;;16.90;9.70;;;;;;;-3.85;84.86;100397.50;106766;1296;22155;-60
2022/12/18 07:46:05;;;;;;;17.30;9.80;;;;;;;-3.86;84.83;100408.45;106641;1286;22229;-60
2022/12/18 07:48:32;;;;;;;20.20;10.90;;;;;;;-3.92;84.64;100409.84;106307;1303;138184;-59
2022/12/18 07:51:04;;;;;;;17.40;10.00;;;;;;;-3.93;84.32;100406.77;106636;1303;22202;-58
2022/12/18 07:53:31;;;;;;;19.70;9.70;;;;;;;-3.91;84.11;100419.92;106497;1295;139501;-59
2022/12/18 07:56:05;;;;;;;14.20;8.40;;;;;;;-3.92;84.05;100419.98;106598;1297;22149;-58
2022/12/18 07:58:52;;;;;;;17.30;10.20;;;;;;;-3.93;84.13;100421.27;106571;1283;139098;-58
2022/12/18 08:01:19;;;;;;;18.20;10.40;;;;;;;-3.93;83.68;100425.95;106665;1284;22337;-58
2022/12/18 08:03:46;;;;;;;13.30;8.50;;;;;;;-3.96;83.70;100435.58;106641;1295;22867;-59
2022/12/18 08:06:13;;;;;;;18.00;9.50;;;;;;;-3.97;83.99;100438.16;106615;1296;138275;-57
2022/12/18 08:08:42;;;;;;;18.60;9.70;;;;;;;-3.96;84.17;100440.57;106672;1296;22201;-57
2022/12/18 08:11:08;;;;;;;249.30;94.80;;;;;;;-3.94;83.94;100455.33;106483;1302;137474;-57
2022/12/18 08:13:35;;;;;;;;;;;;;;;-3.96;83.88;100458.30;106803;1302;22374;-57
2022/12/18 08:16:04;;;;;;;22.20;10.60;;;;;;;-3.99;83.85;100464.80;106841;1303;22211;-58
2022/12/18 08:18:32;;;;;;;17.30;9.40;;;;;;;-4.04;83.86;100463.09;106633;1295;140050;-59
2022/12/18 08:21:14;;;;;;;17.00;8.50;;;;;;;-4.04;83.36;100467.98;106720;1281;23072;-56
2022/12/18 08:23:41;;;;;;;15.80;8.80;;;;;;;-4.12;83.21;100473.10;106599;1302;138575;-56
2022/12/18 08:26:10;;;;;;;16.10;8.90;;;;;;;-4.13;83.78;100474.84;106711;1304;22154;-56
2022/12/18 08:28:37;;;;;;;14.80;8.80;;;;;;;-4.11;84.36;100476.72;106727;1289;22124;-58
2022/12/18 08:31:04;;;;;;;;;;;;;;;-4.06;84.60;100476.65;106630;1296;138950;-58
2022/12/18 08:33:31;;;;;;;23.90;10.30;;;;;;;-4.03;84.54;100475.13;106791;1302;21805;-57
2022/12/18 08:35:58;;;;;;;;;;;;;;;-4.03;84.34;100472.61;106561;1287;138268;-58
2022/12/18 08:38:25;;;;;;;20.30;10.20;;;;;;;-4.04;84.36;100474.48;106702;1302;22328;-57
2022/12/18 08:41:02;;;;;;;16.10;8.50;;;;;;;-4.03;84.45;100473.50;106620;1281;137945;-57
2022/12/18 08:46:15;;;;;;;17.00;8.60;;;;;;;-4.07;83.68;100474.48;106726;1302;23041;-58
2022/12/18 08:48:42;;;;;;;14.00;8.10;;;;;;;-4.15;83.18;100471.14;106633;1286;138954;-57
2022/12/18 08:51:09;;;;;;;15.40;8.60;;;;;;;-4.13;83.42;100479.09;106786;1302;22202;-57
2022/12/18 08:53:36;;;;;;;16.50;8.90;;;;;;;-4.14;83.32;100484.27;106563;1302;139116;-57
2022/12/18 08:56:04;;;;;;;13.10;7.60;;;;;;;-4.13;83.47;100490.41;106702;1302;22218;-57
2022/12/18 08:58:31;;;;;;;12.80;7.30;;;;;;;-4.10;83.32;100495.09;106780;1299;22236;-57
2022/12/18 09:01:01;;;;;;;;;;;;;;;-4.07;83.09;100502.47;106529;1303;137979;-57
2022/12/18 09:03:28;;;;;;;12.30;7.00;;;;;;;-4.05;82.55;100510.67;106705;1303;22142;-57
2022/12/18 09:05:55;;;;;;;;;;;;;;;-4.08;82.43;100503.42;106582;1302;139120;-57
2022/12/18 09:08:22;;;;;;;14.70;8.40;;;;;;;-4.10;81.96;100506.13;106694;1302;22097;-58
2022/12/18 09:10:49;;;;;;;15.00;7.60;;;;;;;-4.13;82.01;100508.37;106746;1287;22846;-57
2022/12/18 09:13:16;;;;;;;16.60;8.90;;;;;;;-4.15;82.01;100511.35;106705;1297;22122;-58
2022/12/18 09:15:45;;;;;;;12.60;7.20;;;;;;;-4.15;81.74;100514.40;106685;1303;22120;-57
2022/12/18 09:18:12;;;;;;;15.10;8.70;;;;;;;-4.17;81.73;100518.77;106494;1302;139656;-57
2022/12/18 09:20:38;;;;;;;12.90;7.80;;;;;;;-4.18;81.93;100521.77;106581;1303;22125;-57
2022/12/18 09:23:05;;;;;;;16.20;8.80;;;;;;;-4.22;81.96;100515.91;106515;1303;138696;-57
2022/12/18 09:25:33;;;;;;;;;;;;;;;-4.23;82.22;100527.92;106612;1301;22415;-57
2022/12/18 09:28:00;;;;;;;19.80;9.30;;;;;;;-4.23;82.87;100522.96;106708;1303;21999;-57
2022/12/18 09:30:27;;;;;;;16.10;9.40;;;;;;;-4.18;83.13;100528.01;106497;1303;138405;-57
2022/12/18 09:32:54;;;;;;;15.60;8.20;;;;;;;-4.17;83.32;100520.95;106610;1303;22154;-57
2022/12/18 09:35:20;;;;;;;12.10;6.70;;;;;;;-4.09;83.30;100527.16;106485;1297;137568;-57
2022/12/18 09:37:47;;;;;;;16.10;8.40;;;;;;;-4.12;82.79;100534.01;106619;1303;22120;-57
2022/12/18 09:40:19;;;;;;;12.50;8.30;;;;;;;-4.12;82.24;100533.66;106664;1296;22135;-58
2022/12/18 09:42:48;;;;;;;14.60;8.50;;;;;;;-4.15;82.34;100542.76;106517;1303;137741;-57
2022/12/18 09:45:15;;;;;;;14.10;8.50;;;;;;;-4.17;82.42;100544.70;106471;1298;22127;-58
2022/12/18 09:47:41;;;;;;;13.00;6.80;;;;;;;-4.18;82.40;100550.09;106496;1296;137928;-58
2022/12/18 09:50:35;;;;;;;12.70;7.50;;;;;;;-4.18;81.60;100563.45;106614;1304;22119;-57
2022/12/18 09:53:06;;;;;;;15.10;7.90;;;;;;;-4.24;81.29;100562.36;106437;1303;138746;-58
2022/12/18 09:55:36;;;;;;;17.90;8.90;;;;;;;-4.25;81.72;100561.59;106592;1296;22146;-56
2022/12/18 09:58:26;;;;;;;11.70;6.40;;;;;;;-4.26;80.55;100568.60;106565;1303;22153;-60
2022/12/18 10:00:53;;;;;;;12.60;7.60;;;;;;;-4.32;80.86;100560.41;106461;1303;137689;-60
2022/12/18 10:03:20;;;;;;;11.90;7.00;;;;;;;-4.32;81.23;100566.42;106607;1304;22203;-60
2022/12/18 10:06:11;;;;;;;15.30;8.70;;;;;;;-4.31;81.01;100567.59;106596;1303;140696;-61
2022/12/18 10:09:03;;;;;;;16.60;8.20;;;;;;;-4.32;80.94;100572.66;106783;1302;23307;-58
2022/12/18 10:11:39;;;;;;;14.20;8.10;;;;;;;-4.33;81.17;100575.58;106623;1302;138686;-58
2022/12/18 10:14:30;;;;;;;12.70;7.90;;;;;;;-4.33;80.89;100580.60;106622;1303;23235;-59
2022/12/18 10:17:08;;;;;;;10.70;6.50;;;;;;;-4.35;81.18;100588.89;106478;1303;137987;-58
2022/12/18 10:20:20;;;;;;;12.80;6.60;;;;;;;-4.32;81.05;100591.48;106765;1286;22239;-59
2022/12/18 10:22:57;;;;;;;12.80;7.10;;;;;;;-4.34;80.71;100593.29;106269;1308;22420;-58
2022/12/18 10:25:42;;;;;;;12.20;7.00;;;;;;;-4.37;80.51;100597.20;106116;1308;22359;-59
2022/12/18 10:28:13;;;;;;;13.50;7.50;;;;;;;-4.46;80.39;100595.89;106215;1308;22270;-60
2022/12/18 10:30:41;;;;;;;14.40;8.40;;;;;;;-4.54;80.74;100596.67;106275;1302;137610;-60
2022/12/18 10:33:15;;;;;;;13.30;7.70;;;;;;;-4.57;81.09;100597.41;106396;1308;22666;-60
2022/12/18 10:35:42;;;;;;;15.50;7.50;;;;;;;-4.60;81.58;100598.90;106036;1308;138269;-60
2022/12/18 10:38:12;;;;;;;13.40;7.00;;;;;;;-4.57;81.97;100602.55;106130;1308;22372;-61
2022/12/18 10:40:50;;;;;;;15.00;7.80;;;;;;;-4.54;82.08;100596.63;106300;1308;22249;-60
2022/12/18 10:43:27;;;;;;;13.00;7.30;;;;;;;-4.55;81.83;100600.10;106359;1300;22201;-59
2022/12/18 10:46:17;;;;;;;15.10;6.90;;;;;;;-4.57;82.23;100607.00;106381;1308;22231;-59
2022/12/18 10:48:47;;;;;;;11.60;7.10;;;;;;;-4.60;83.16;100607.66;106215;1308;139065;-60
2022/12/18 10:51:25;;;;;;;14.40;6.90;;;;;;;-4.58;83.77;100609.77;106331;1300;22204;-59
2022/12/18 10:54:06;;;;;;;14.40;7.80;;;;;;;-4.56;83.25;100612.77;106180;1309;138836;-59
2022/12/18 10:56:36;;;;;;;15.20;8.10;;;;;;;-4.55;83.14;100610.04;106394;1305;22250;-59
2022/12/18 10:59:04;;;;;;;17.20;8.70;;;;;;;-4.50;83.25;100616.34;106518;1303;138739;-60
2022/12/18 11:01:54;;;;;;;15.40;8.60;;;;;;;-4.46;82.95;100614.70;106833;1301;22096;-59
2022/12/18 11:04:26;;;;;;;13.30;8.10;;;;;;;-4.46;82.41;100618.98;106745;1295;22153;-59
2022/12/18 11:07:02;;;;;;;16.90;10.00;;;;;;;-4.50;81.95;100625.35;106663;1302;139216;-59
2022/12/18 11:09:34;;;;;;;14.20;8.10;;;;;;;-4.54;81.94;100630.85;106786;1294;22117;-59
2022/12/18 11:12:06;;;;;;;14.40;7.90;;;;;;;-4.60;81.63;100633.99;106654;1285;138185;-59
2022/12/18 11:14:34;;;;;;;13.70;7.70;;;;;;;-4.63;81.87;100633.61;106615;1299;22263;-60
2022/12/18 11:17:01;;;;;;;13.90;7.70;;;;;;;-4.65;82.33;100642.59;106441;1302;140149;-60
2022/12/18 11:19:58;;;;;;;13.30;7.40;;;;;;;-4.64;82.69;100645.01;106884;1302;22131;-60
2022/12/18 11:22:29;;;;;;;9.90;6.00;;;;;;;-4.61;82.81;100647.57;106618;1298;22123;-60
2022/12/18 11:25:25;;;;;;;12.80;7.70;;;;;;;-4.61;82.78;100651.48;106533;1304;137895;-60
2022/12/18 11:28:40;;;;;;;15.00;8.30;;;;;;;-4.59;83.22;100659.30;106291;1293;22170;-60
2022/12/18 11:31:27;;;;;;;14.40;8.20;;;;;;;-4.54;83.27;100662.27;106066;1308;138229;-60